Time;durP1;ratioP1;P1;durP2;ratioP2;P2;SDS_P1;SDS_P2;PMS_P1;PMS_P2;Temp;Humidity;BMP_temperature;BMP_pressure;BME280_temperature;BME280_humidity;BME280_pressure;Samples;Min_cycle;Max_cycle;Signal;HPM_P1;HPM_P2
2023/07/17 00:01:45;;;;;;;6.05;3.38;;;17.90;99.90;;;;;;5093018;28;20113;-64
2023/07/17 00:04:11;;;;;;;6.20;3.08;;;17.90;99.90;;;;;;5093232;28;20054;-64
2023/07/17 00:06:38;;;;;;;6.40;3.33;;;17.80;99.90;;;;;;5093222;28;20040;-64
2023/07/17 00:09:04;;;;;;;8.20;3.35;;;17.80;99.90;;;;;;5091151;28;20040;-64
2023/07/17 00:11:31;;;;;;;7.90;3.88;;;17.70;99.90;;;;;;5093902;28;20105;-64
2023/07/17 00:13:57;;;;;;;5.22;2.85;;;17.60;99.90;;;;;;5093471;28;20105;-64
2023/07/17 00:16:23;;;;;;;6.10;3.20;;;17.60;99.90;;;;;;5093466;28;20067;-64
2023/07/17 00:18:49;;;;;;;7.45;3.03;;;17.50;99.90;;;;;;5093946;28;20051;-63
2023/07/17 00:21:16;;;;;;;6.93;2.63;;;17.30;99.90;;;;;;5093907;28;20052;-63
2023/07/17 00:23:42;;;;;;;8.20;2.90;;;17.20;99.90;;;;;;5092698;28;20070;-64
2023/07/17 00:26:08;;;;;;;5.43;2.35;;;17.20;99.90;;;;;;5093378;28;20113;-64
2023/07/17 00:28:34;;;;;;;4.32;2.33;;;17.10;99.90;;;;;;5092875;28;20368;-64
2023/07/17 00:31:01;;;;;;;4.57;2.35;;;17.00;99.90;;;;;;5091674;28;20077;-64
2023/07/17 00:33:27;;;;;;;11.02;3.10;;;16.90;99.90;;;;;;5093895;28;20048;-65
2023/07/17 00:35:53;;;;;;;6.05;2.50;;;16.90;99.90;;;;;;5093422;28;20469;-64
2023/07/17 00:38:19;;;;;;;5.22;2.60;;;16.80;99.90;;;;;;5093211;28;20575;-64
2023/07/17 00:40:46;;;;;;;4.85;2.67;;;16.80;99.90;;;;;;5092511;28;20044;-64
2023/07/17 00:43:12;;;;;;;6.10;2.35;;;16.80;99.90;;;;;;5093121;28;20063;-64
2023/07/17 00:45:41;;;;;;;4.15;2.50;;;16.70;99.90;;;;;;5092762;28;20422;-65
2023/07/17 00:48:08;;;;;;;7.20;2.47;;;16.80;99.90;;;;;;5092872;28;20044;-64
2023/07/17 00:50:35;;;;;;;5.93;2.50;;;16.70;99.90;;;;;;5090362;28;20105;-65
2023/07/17 00:53:03;;;;;;;6.90;2.00;;;16.70;99.90;;;;;;5093063;28;20411;-64
2023/07/17 00:55:31;;;;;;;5.90;2.50;;;16.60;99.90;;;;;;5092033;28;20129;-64
2023/07/17 00:57:58;;;;;;;6.05;2.30;;;16.60;99.90;;;;;;5091932;28;20102;-64
2023/07/17 01:00:25;;;;;;;4.85;2.28;;;16.60;99.90;;;;;;5091216;28;20048;-64
2023/07/17 01:02:54;;;;;;;4.30;2.38;;;16.60;99.90;;;;;;5092306;28;20040;-64
2023/07/17 01:05:20;;;;;;;5.57;2.42;;;16.50;99.90;;;;;;5092165;28;20044;-64
2023/07/17 01:07:46;;;;;;;4.88;2.30;;;16.60;99.90;;;;;;5091800;28;20453;-64
2023/07/17 01:10:13;;;;;;;3.08;2.10;;;16.60;99.90;;;;;;5089943;28;20044;-64
2023/07/17 01:12:39;;;;;;;4.85;2.25;;;16.50;99.90;;;;;;5092014;28;20052;-64
2023/07/17 01:15:06;;;;;;;6.53;2.50;;;16.50;99.90;;;;;;5092098;28;20051;-64
2023/07/17 01:17:33;;;;;;;4.90;2.47;;;16.50;99.90;;;;;;5091775;28;20047;-64
2023/07/17 01:19:59;;;;;;;5.35;2.40;;;16.40;99.90;;;;;;5089818;28;20044;-64
2023/07/17 01:22:33;;;;;;;6.35;2.67;;;16.40;99.90;;;;;;5091888;28;20040;-64
2023/07/17 01:24:59;;;;;;;6.72;2.38;;;16.30;99.90;;;;;;5092205;28;20044;-64
2023/07/17 01:27:25;;;;;;;5.95;2.42;;;16.30;99.90;;;;;;5073816;28;20048;-64
2023/07/17 01:29:51;;;;;;;5.10;1.92;;;16.30;99.90;;;;;;5089741;28;20397;-64
2023/07/17 01:32:20;;;;;;;7.40;2.40;;;16.20;99.90;;;;;;5091848;28;20135;-64
2023/07/17 01:34:47;;;;;;;6.03;2.40;;;16.20;99.90;;;;;;5091698;28;20048;-65
2023/07/17 01:37:13;;;;;;;6.25;2.58;;;16.20;99.90;;;;;;5091003;28;20071;-64
2023/07/17 01:39:39;;;;;;;5.03;2.30;;;16.20;99.90;;;;;;5089444;28;20381;-64
2023/07/17 01:42:06;;;;;;;4.65;2.42;;;16.10;99.90;;;;;;5091632;28;20052;-64
2023/07/17 01:44:32;;;;;;;4.47;2.47;;;16.20;99.90;;;;;;5091796;28;20036;-64
2023/07/17 01:46:59;;;;;;;4.45;2.35;;;16.20;99.90;;;;;;5091209;28;20373;-65
2023/07/17 01:49:25;;;;;;;7.40;2.65;;;16.10;99.90;;;;;;5089940;28;20052;-65
2023/07/17 01:51:51;;;;;;;5.50;2.63;;;16.20;99.90;;;;;;5091647;28;20392;-64
2023/07/17 01:54:17;;;;;;;6.07;2.95;;;16.10;99.90;;;;;;5091731;28;20082;-65
2023/07/17 01:56:44;;;;;;;6.18;2.70;;;16.10;99.90;;;;;;5091457;28;20364;-65
2023/07/17 01:59:10;;;;;;;6.45;2.65;;;16.10;99.90;;;;;;5089712;28;20407;-64
2023/07/17 02:01:36;;;;;;;5.30;2.47;;;16.10;99.90;;;;;;5091497;28;20112;-65
2023/07/17 02:04:02;;;;;;;4.88;2.50;;;16.10;99.90;;;;;;5091700;28;20048;-64
2023/07/17 02:06:29;;;;;;;7.47;2.92;;;16.10;99.90;;;;;;5091330;28;20452;-65
2023/07/17 02:08:55;;;;;;;5.82;2.70;;;16.00;99.90;;;;;;5092953;28;20110;-64
2023/07/17 02:11:26;;;;;;;10.82;2.63;;;16.10;99.90;;;;;;5095240;28;20052;-64
2023/07/17 02:13:53;;;;;;;5.18;2.65;;;16.10;99.90;;;;;;5095337;28;20048;-65
2023/07/17 02:16:19;;;;;;;8.45;2.83;;;15.90;99.90;;;;;;5095160;28;20116;-64
2023/07/17 02:18:45;;;;;;;7.07;3.03;;;15.90;99.90;;;;;;5093611;28;20052;-65
2023/07/17 02:21:12;;;;;;;5.93;3.08;;;16.00;99.90;;;;;;5094681;28;20044;-64
2023/07/17 02:23:38;;;;;;;6.60;3.15;;;15.90;99.90;;;;;;5095083;28;20044;-65
2023/07/17 02:26:04;;;;;;;5.20;2.65;;;15.90;99.90;;;;;;5095076;28;20114;-64
2023/07/17 02:28:30;;;;;;;8.20;3.35;;;15.90;99.90;;;;;;5094790;28;20047;-65
2023/07/17 02:30:57;;;;;;;8.93;3.40;;;15.90;99.90;;;;;;5093672;28;20443;-65
2023/07/17 02:33:23;;;;;;;5.60;2.70;;;15.90;99.90;;;;;;5094919;28;20059;-65
2023/07/17 02:35:49;;;;;;;6.47;2.88;;;15.90;99.90;;;;;;5094533;28;20068;-65
2023/07/17 02:38:15;;;;;;;6.78;3.03;;;15.90;99.90;;;;;;5094531;28;20109;-64
2023/07/17 02:40:41;;;;;;;8.60;3.28;;;15.90;99.90;;;;;;5092888;28;20113;-64
2023/07/17 02:43:09;;;;;;;9.02;2.65;;;15.90;99.90;;;;;;5094619;28;20048;-65
2023/07/17 02:45:37;;;;;;;7.22;2.70;;;15.90;99.90;;;;;;5094682;28;20043;-64
2023/07/17 02:48:03;;;;;;;8.00;2.85;;;15.90;99.90;;;;;;5093933;28;20432;-65
2023/07/17 02:50:30;;;;;;;7.72;2.92;;;15.80;99.90;;;;;;5093235;28;20040;-64
2023/07/17 02:52:56;;;;;;;9.10;3.28;;;15.80;99.90;;;;;;5094564;28;20047;-65
2023/07/17 02:55:23;;;;;;;8.60;3.55;;;15.80;99.90;;;;;;5094428;28;20063;-65
2023/07/17 02:57:50;;;;;;;9.57;3.35;;;15.80;99.90;;;;;;5093905;28;20062;-65
2023/07/17 03:00:17;;;;;;;9.32;2.63;;;15.80;99.90;;;;;;5093123;28;20052;-64
2023/07/17 03:02:45;;;;;;;8.05;2.95;;;15.80;99.90;;;;;;5094316;28;20043;-65
2023/07/17 03:05:12;;;;;;;8.23;2.70;;;15.70;99.90;;;;;;5094171;28;20048;-64
2023/07/17 03:07:41;;;;;;;6.57;3.75;;;15.70;99.90;;;;;;5093882;28;20055;-65
2023/07/17 03:10:07;;;;;;;7.50;3.03;;;15.70;99.90;;;;;;5093022;28;20048;-65
2023/07/17 03:12:34;;;;;;;9.52;3.00;;;15.70;99.90;;;;;;5094367;28;20101;-64
2023/07/17 03:15:00;;;;;;;9.25;3.28;;;15.70;99.90;;;;;;5094436;28;20052;-65
2023/07/17 03:17:26;;;;;;;8.10;3.20;;;15.70;99.90;;;;;;5093805;28;20067;-65
2023/07/17 03:19:53;;;;;;;7.55;2.80;;;15.70;99.90;;;;;;5091489;28;20424;-65
2023/07/17 03:22:19;;;;;;;7.97;2.53;;;15.60;99.90;;;;;;5094136;28;20105;-65
2023/07/17 03:24:45;;;;;;;9.45;3.15;;;15.60;99.90;;;;;;5094723;28;20044;-65
2023/07/17 03:27:11;;;;;;;8.07;2.95;;;15.60;99.90;;;;;;5093732;28;20044;-65
2023/07/17 03:29:37;;;;;;;7.57;3.25;;;15.60;99.90;;;;;;5092862;28;20044;-65
2023/07/17 03:32:04;;;;;;;6.28;2.90;;;15.50;99.90;;;;;;5093741;28;20048;-65
2023/07/17 03:34:30;;;;;;;6.88;3.00;;;15.60;99.90;;;;;;5094076;28;20541;-65
2023/07/17 03:36:57;;;;;;;8.00;3.10;;;15.50;99.90;;;;;;5092939;28;20353;-65
2023/07/17 03:39:23;;;;;;;9.15;3.20;;;15.50;99.90;;;;;;5092498;28;20507;-64
2023/07/17 03:41:49;;;;;;;10.15;3.20;;;15.60;99.90;;;;;;5093769;28;20051;-64
2023/07/17 03:44:15;;;;;;;10.82;3.30;;;15.60;99.90;;;;;;5093891;28;20101;-64
2023/07/17 03:46:42;;;;;;;7.40;3.67;;;15.50;99.90;;;;;;5093254;28;20101;-65
2023/07/17 03:49:08;;;;;;;8.15;3.08;;;15.50;99.90;;;;;;5092506;28;20075;-65
2023/07/17 03:51:34;;;;;;;8.23;2.90;;;15.50;99.90;;;;;;5093446;28;20101;-64
2023/07/17 03:54:00;;;;;;;8.80;3.20;;;15.60;99.90;;;;;;5094690;28;20522;-64
2023/07/17 03:56:27;;;;;;;9.40;4.00;;;15.50;99.90;;;;;;5092954;28;20048;-64
2023/07/17 03:58:53;;;;;;;9.50;3.03;;;15.50;99.90;;;;;;5092551;28;20189;-65
2023/07/17 04:01:19;;;;;;;4.28;2.65;;;15.50;99.90;;;;;;5093149;28;20052;-64
2023/07/17 04:03:45;;;;;;;5.68;2.80;;;15.50;99.90;;;;;;5093139;28;20048;-65
2023/07/17 04:06:11;;;;;;;5.70;2.83;;;15.50;99.90;;;;;;5093002;28;20418;-64
2023/07/17 04:08:38;;;;;;;6.93;2.70;;;15.50;99.90;;;;;;5092365;28;20387;-65
2023/07/17 04:11:04;;;;;;;7.95;2.97;;;15.60;99.90;;;;;;5092081;28;20444;-65
2023/07/17 04:13:30;;;;;;;9.13;3.38;;;15.60;99.90;;;;;;5092978;28;20537;-65
2023/07/17 04:15:59;;;;;;;9.60;4.07;;;15.50;99.90;;;;;;5093468;28;20051;-65
2023/07/17 04:18:26;;;;;;;9.88;4.07;;;15.60;99.90;;;;;;5093662;28;20083;-65
2023/07/17 04:20:52;;;;;;;7.18;3.13;;;15.60;99.90;;;;;;5092038;28;20048;-65
2023/07/17 04:23:18;;;;;;;7.20;2.78;;;15.60;99.90;;;;;;5092911;28;20097;-65
2023/07/17 04:25:44;;;;;;;10.23;3.50;;;15.60;99.90;;;;;;5092888;28;20043;-65
2023/07/17 04:28:10;;;;;;;7.68;3.15;;;15.70;99.90;;;;;;5092290;28;20113;-64
2023/07/17 04:30:37;;;;;;;7.30;2.90;;;15.60;99.90;;;;;;5091804;28;20106;-64
2023/07/17 04:33:05;;;;;;;8.05;3.05;;;15.70;99.90;;;;;;5092719;28;20063;-64
2023/07/17 04:35:38;;;;;;;6.18;3.10;;;15.80;99.90;;;;;;5092535;28;20124;-65
2023/07/17 04:38:04;;;;;;;7.07;3.05;;;15.80;99.90;;;;;;5091976;28;20465;-65
2023/07/17 04:40:31;;;;;;;7.53;3.45;;;15.80;99.90;;;;;;5083872;28;20113;-64
2023/07/17 04:43:00;;;;;;;7.38;3.08;;;15.80;99.90;;;;;;5092762;28;20036;-65
2023/07/17 04:45:26;;;;;;;7.63;3.72;;;15.90;99.90;;;;;;5092521;28;20048;-65
2023/07/17 04:47:53;;;;;;;6.72;3.45;;;15.90;99.90;;;;;;5092076;28;20055;-65
2023/07/17 04:50:23;;;;;;;6.97;2.95;;;15.90;99.90;;;;;;5083243;28;20113;-65
2023/07/17 04:52:49;;;;;;;9.93;3.35;;;15.90;99.90;;;;;;5092389;28;20036;-65
2023/07/17 04:55:15;;;;;;;5.78;2.83;;;16.00;99.90;;;;;;5092528;28;20056;-65
2023/07/17 04:57:41;;;;;;;9.95;3.33;;;16.00;99.90;;;;;;5092235;28;20048;-65
2023/07/17 05:00:09;;;;;;;7.10;2.97;;;16.10;99.90;;;;;;5083600;28;20040;-64
2023/07/17 05:02:36;;;;;;;6.38;3.20;;;16.20;99.90;;;;;;5092414;28;20071;-65
2023/07/17 05:05:02;;;;;;;9.27;3.38;;;16.70;99.90;;;;;;5092192;28;20368;-64
2023/07/17 05:07:28;;;;;;;7.57;3.13;;;17.50;99.90;;;;;;5087614;28;20040;-65
2023/07/17 05:09:54;;;;;;;7.47;3.15;;;17.90;99.90;;;;;;5084049;28;20032;-64
2023/07/17 05:12:21;;;;;;;7.15;3.72;;;18.40;99.90;;;;;;5081414;28;20044;-65
2023/07/17 05:14:47;;;;;;;5.20;3.28;;;18.90;99.90;;;;;;5079613;28;20048;-64
2023/07/17 05:17:13;;;;;;;8.38;3.35;;;19.30;99.90;;;;;;5076130;28;20468;-65
2023/07/17 05:19:39;;;;;;;7.68;3.92;;;19.60;99.90;;;;;;5077701;28;20045;-65
2023/07/17 05:22:06;;;;;;;8.75;3.28;;;19.90;99.90;;;;;;5079444;28;20118;-65
2023/07/17 05:24:32;;;;;;;9.27;3.60;;;20.20;99.90;;;;;;5075791;28;20136;-65
2023/07/17 05:26:58;;;;;;;7.20;3.40;;;20.20;99.90;;;;;;5074470;28;20101;-65
2023/07/17 05:29:25;;;;;;;7.63;3.55;;;20.50;99.90;;;;;;5077115;28;20041;-65
2023/07/17 05:31:51;;;;;;;7.55;3.33;;;20.80;99.90;;;;;;5072896;28;20122;-64
2023/07/17 05:34:17;;;;;;;8.18;3.58;;;20.80;99.90;;;;;;5072143;28;20368;-64
2023/07/17 05:36:43;;;;;;;9.32;3.53;;;21.10;99.90;;;;;;5061040;28;20059;-64
2023/07/17 05:39:10;;;;;;;6.25;3.60;;;21.50;99.90;;;;;;5055160;28;20048;-64
2023/07/17 05:41:36;;;;;;;8.68;4.13;;;21.60;99.90;;;;;;5087294;28;20097;-64
2023/07/17 05:44:02;;;;;;;6.88;3.70;;;21.60;99.90;;;;;;5072036;28;20040;-65
2023/07/17 05:46:29;;;;;;;8.40;3.53;;;21.70;99.90;;;;;;5055577;28;20365;-64
2023/07/17 05:48:55;;;;;;;9.00;3.97;;;21.50;99.90;;;;;;5064776;28;20114;-65
2023/07/17 05:51:21;;;;;;;9.93;3.70;;;21.70;99.90;;;;;;5067888;28;20048;-64
2023/07/17 05:53:47;;;;;;;9.50;3.80;;;22.00;99.90;;;;;;5055587;28;20053;-64
2023/07/17 05:56:15;;;;;;;7.00;3.60;;;22.50;99.90;;;;;;5055362;28;20437;-64
2023/07/17 05:58:41;;;;;;;7.88;3.78;;;22.60;99.90;;;;;;5056032;28;20052;-64
2023/07/17 06:01:08;;;;;;;8.38;3.97;;;22.70;99.90;;;;;;5079024;28;20056;-65
2023/07/17 06:03:34;;;;;;;8.52;3.80;;;22.70;99.90;;;;;;5067330;28;20056;-64
2023/07/17 06:06:00;;;;;;;8.57;4.03;;;22.40;99.90;;;;;;5066112;28;20103;-65
2023/07/17 06:08:26;;;;;;;8.10;4.13;;;22.40;99.90;;;;;;5066130;28;20041;-65
2023/07/17 06:10:53;;;;;;;9.00;4.07;;;22.20;99.90;;;;;;5065965;28;20053;-65
2023/07/17 06:13:21;;;;;;;11.02;4.03;;;21.60;99.90;;;;;;5058688;28;20452;-65
2023/07/17 06:15:48;;;;;;;10.13;4.88;;;21.30;99.90;;;;;;5067410;28;20094;-64
2023/07/17 06:18:14;;;;;;;9.93;4.38;;;21.70;99.90;;;;;;5062987;28;20052;-64
2023/07/17 06:20:40;;;;;;;9.27;4.53;;;22.20;99.90;;;;;;5062881;28;20045;-65
2023/07/17 06:23:07;;;;;;;9.43;4.60;;;21.80;99.90;;;;;;5064247;28;20048;-64
2023/07/17 06:25:34;;;;;;;8.25;4.50;;;20.80;99.90;;;;;;5065652;28;20045;-64
2023/07/17 06:28:00;;;;;;;10.18;4.35;;;20.60;99.90;;;;;;5065908;28;20048;-64
2023/07/17 06:30:26;;;;;;;11.82;5.25;;;20.50;99.90;;;;;;5034047;28;20048;-64
2023/07/17 06:32:53;;;;;;;9.20;5.05;;;20.70;99.90;;;;;;5033531;28;20481;-64
2023/07/17 06:35:19;;;;;;;9.77;4.35;;;20.50;99.90;;;;;;5057683;28;20057;-64
2023/07/17 06:37:45;;;;;;;12.32;4.95;;;20.30;99.90;;;;;;5074569;28;20059;-64
2023/07/17 06:40:12;;;;;;;9.90;5.13;;;20.20;99.90;;;;;;5055780;28;20060;-64
2023/07/17 06:42:38;;;;;;;11.65;5.00;;;20.00;99.90;;;;;;5065926;28;20113;-64
2023/07/17 06:45:05;;;;;;;11.52;5.38;;;20.40;99.90;;;;;;5074976;28;20050;-64
2023/07/17 06:47:31;;;;;;;12.80;5.03;;;20.70;99.90;;;;;;5075143;28;20484;-64
2023/07/17 06:49:58;;;;;;;9.05;5.32;;;21.20;99.90;;;;;;5074310;28;20044;-64
2023/07/17 06:52:24;;;;;;;9.52;4.32;;;21.60;99.90;;;;;;5076457;28;20055;-64
2023/07/17 06:54:50;;;;;;;11.18;4.70;;;22.30;99.90;;;;;;5075731;28;20049;-65
2023/07/17 06:57:17;;;;;;;8.75;4.78;;;22.60;99.90;;;;;;5075442;28;20056;-64
2023/07/17 06:59:43;;;;;;;8.85;5.00;;;22.60;99.90;;;;;;5074036;28;20052;-65
2023/07/17 07:02:09;;;;;;;9.43;4.57;;;22.30;99.90;;;;;;5074716;28;20053;-63
2023/07/17 07:04:35;;;;;;;10.68;5.15;;;21.50;99.90;;;;;;5074495;28;20457;-63
2023/07/17 07:07:02;;;;;;;10.73;5.03;;;21.30;99.90;;;;;;5074956;28;20044;-64
2023/07/17 07:09:28;;;;;;;11.65;5.25;;;21.10;99.90;;;;;;5074349;28;20060;-64
2023/07/17 07:11:54;;;;;;;11.15;4.88;;;20.70;99.90;;;;;;5075038;28;20044;-64
2023/07/17 07:14:20;;;;;;;10.05;4.72;;;20.40;99.90;;;;;;5074818;28;20060;-64
2023/07/17 07:16:47;;;;;;;11.52;4.90;;;20.50;99.90;;;;;;5075323;28;20048;-64
2023/07/17 07:19:13;;;;;;;12.68;5.13;;;20.60;99.90;;;;;;5074184;28;20056;-64
2023/07/17 07:21:40;;;;;;;9.30;4.90;;;20.80;99.90;;;;;;5075836;28;20052;-64
2023/07/17 07:24:07;;;;;;;10.63;5.70;;;20.90;99.90;;;;;;5074756;28;20075;-63
2023/07/17 07:26:33;;;;;;;10.90;5.05;;;20.70;99.90;;;;;;5062481;28;20048;-64
2023/07/17 07:28:59;;;;;;;13.10;5.18;;;20.30;99.90;;;;;;5055210;28;20116;-64
2023/07/17 07:31:25;;;;;;;11.25;4.70;;;20.20;99.90;;;;;;5073906;28;20041;-64
2023/07/17 07:33:51;;;;;;;11.63;4.80;;;20.20;99.90;;;;;;5071175;28;20060;-65
2023/07/17 07:36:18;;;;;;;10.40;4.80;;;20.50;99.90;;;;;;5080905;28;20418;-64
2023/07/17 07:38:44;;;;;;;9.75;4.55;;;20.50;99.90;;;;;;5094192;28;20476;-64
2023/07/17 07:41:11;;;;;;;10.57;4.93;;;20.60;99.90;;;;;;5094425;28;20056;-65
2023/07/17 07:43:37;;;;;;;11.48;5.10;;;20.60;99.90;;;;;;5094506;28;20052;-63
2023/07/17 07:46:03;;;;;;;10.35;4.90;;;20.70;99.90;;;;;;5094511;28;20043;-64
2023/07/17 07:48:31;;;;;;;11.95;5.60;;;20.60;99.90;;;;;;5094804;28;20044;-64
2023/07/17 07:50:57;;;;;;;11.27;5.20;;;20.50;99.90;;;;;;5093947;28;20041;-64
2023/07/17 07:53:24;;;;;;;9.43;4.80;;;20.40;99.90;;;;;;5094039;28;20052;-64
2023/07/17 07:55:50;;;;;;;10.00;5.20;;;20.20;99.90;;;;;;5094250;28;20052;-64
2023/07/17 07:58:16;;;;;;;9.93;5.05;;;20.20;99.90;;;;;;5094014;28;20097;-64
2023/07/17 08:00:42;;;;;;;9.35;5.07;;;20.00;99.90;;;;;;5081707;28;20044;-65
2023/07/17 08:03:08;;;;;;;9.75;4.85;;;20.20;99.90;;;;;;5081631;28;20044;-64
2023/07/17 08:05:35;;;;;;;10.82;4.97;;;20.50;99.90;;;;;;5084284;28;20040;-64
2023/07/17 08:08:01;;;;;;;9.35;4.85;;;20.40;99.90;;;;;;5082464;28;20036;-64
2023/07/17 08:10:27;;;;;;;9.48;5.05;;;20.40;99.90;;;;;;5091193;28;20055;-65
2023/07/17 08:12:53;;;;;;;12.38;4.63;;;20.30;99.90;;;;;;5093920;28;20102;-64
2023/07/17 08:15:20;;;;;;;10.13;5.22;;;20.30;99.90;;;;;;5093753;28;20055;-64
2023/07/17 08:17:47;;;;;;;11.02;5.35;;;20.50;99.90;;;;;;5082131;28;20099;-64
2023/07/17 08:20:13;;;;;;;11.68;4.90;;;20.60;99.90;;;;;;5081252;28;20063;-64
2023/07/17 08:22:40;;;;;;;12.52;5.20;;;20.90;99.90;;;;;;5083140;28;20051;-64
2023/07/17 08:25:07;;;;;;;10.45;5.07;;;21.10;99.90;;;;;;5084382;28;20047;-64
2023/07/17 08:27:33;;;;;;;9.18;4.85;;;21.20;99.90;;;;;;5082598;28;20460;-64
2023/07/17 08:29:59;;;;;;;11.65;4.78;;;21.00;99.90;;;;;;5081068;28;20453;-64
2023/07/17 08:32:25;;;;;;;10.68;4.53;;;21.00;99.90;;;;;;5084147;28;20086;-64
2023/07/17 08:34:52;;;;;;;10.68;4.20;;;21.20;99.90;;;;;;5085255;28;20048;-65
2023/07/17 08:37:18;;;;;;;9.32;4.50;;;21.20;99.90;;;;;;5067957;28;20063;-65
2023/07/17 08:39:44;;;;;;;10.05;4.22;;;21.30;99.90;;;;;;5059291;28;20048;-66
2023/07/17 08:42:11;;;;;;;9.18;3.95;;;21.10;99.90;;;;;;5073367;28;20094;-64
2023/07/17 08:44:38;;;;;;;8.98;3.90;;;20.90;99.90;;;;;;5073004;28;20133;-64
2023/07/17 08:47:08;;;;;;;10.70;4.15;;;20.50;99.90;;;;;;5073243;28;20045;-65
2023/07/17 08:49:35;;;;;;;8.15;4.15;;;20.30;99.90;;;;;;5072372;28;20507;-65
2023/07/17 08:52:04;;;;;;;8.65;4.07;;;20.20;99.90;;;;;;5072989;28;20464;-65
2023/07/17 08:54:30;;;;;;;8.32;4.68;;;20.20;99.90;;;;;;5073154;28;20052;-64
2023/07/17 08:57:04;;;;;;;10.63;4.60;;;20.40;99.90;;;;;;5073317;28;20114;-64
2023/07/17 08:59:31;;;;;;;11.85;4.60;;;20.60;99.90;;;;;;5072843;28;20131;-64
2023/07/17 09:01:57;;;;;;;10.40;4.40;;;20.80;99.90;;;;;;5072838;28;20130;-65
2023/07/17 09:04:25;;;;;;;9.05;4.03;;;21.20;99.90;;;;;;5072519;28;20488;-64
2023/07/17 09:06:51;;;;;;;8.90;3.72;;;21.30;99.90;;;;;;5073037;28;20059;-64
2023/07/17 09:09:19;;;;;;;7.15;3.58;;;21.30;99.90;;;;;;5071879;28;20060;-64
2023/07/17 09:11:45;;;;;;;6.43;3.40;;;21.30;99.90;;;;;;5072416;28;20354;-65
2023/07/17 09:14:11;;;;;;;8.55;3.50;;;21.40;99.90;;;;;;5072537;28;20063;-64
2023/07/17 09:16:39;;;;;;;8.55;3.58;;;21.50;99.90;;;;;;5072036;28;20078;-65
2023/07/17 09:19:05;;;;;;;9.02;3.55;;;21.40;99.90;;;;;;5072049;28;20068;-65
2023/07/17 09:21:31;;;;;;;8.88;3.85;;;21.50;99.90;;;;;;5072757;28;20052;-64
2023/07/17 09:23:58;;;;;;;7.45;3.50;;;21.80;99.90;;;;;;5072845;28;20062;-65
2023/07/17 09:26:26;;;;;;;13.52;4.22;;;21.80;99.90;;;;;;5072881;28;20097;-65
2023/07/17 09:28:55;;;;;;;7.68;3.20;;;21.80;99.90;;;;;;5072768;28;20053;-64
2023/07/17 09:31:28;;;;;;;8.10;4.13;;;21.70;99.90;;;;;;5072267;28;20122;-65
2023/07/17 09:34:04;;;;;;;11.50;4.53;;;21.50;99.90;;;;;;5072969;28;20275;-64
2023/07/17 09:36:30;;;;;;;9.77;3.63;;;21.70;99.90;;;;;;5081113;28;20105;-65
2023/07/17 09:38:58;;;;;;;10.55;3.97;;;21.80;99.90;;;;;;5092469;28;20355;-65
2023/07/17 09:41:28;;;;;;;6.57;3.10;;;21.70;99.90;;;;;;5092581;28;20044;-65
2023/07/17 09:44:05;;;;;;;10.18;3.85;;;21.70;99.90;;;;;;5092747;28;20048;-65
2023/07/17 09:46:33;;;;;;;12.32;3.90;;;21.60;99.90;;;;;;5092913;28;20098;-65
2023/07/17 09:49:01;;;;;;;9.05;3.30;;;21.70;99.90;;;;;;5092651;28;20044;-64
2023/07/17 09:51:28;;;;;;;8.05;3.75;;;21.30;99.90;;;;;;5092602;28;20059;-64
2023/07/17 09:53:55;;;;;;;10.82;4.10;;;21.20;99.90;;;;;;5092739;28;20093;-64
2023/07/17 09:56:26;;;;;;;8.32;3.90;;;21.10;99.90;;;;;;5092785;28;20495;-64
2023/07/17 09:58:57;;;;;;;6.82;3.35;;;21.20;99.90;;;;;;5092623;28;20059;-65
2023/07/17 10:01:25;;;;;;;7.22;3.38;;;21.20;99.90;;;;;;5092359;28;20062;-64
2023/07/17 10:03:51;;;;;;;7.68;3.13;;;21.40;99.90;;;;;;5092622;28;20055;-64
2023/07/17 10:06:19;;;;;;;8.07;3.28;;;21.30;99.90;;;;;;5092482;28;20081;-64
2023/07/17 10:08:48;;;;;;;5.05;2.97;;;21.30;99.90;;;;;;5074866;28;20047;-65
2023/07/17 10:11:18;;;;;;;11.40;4.00;;;21.30;99.90;;;;;;5090908;28;20040;-64
2023/07/17 10:13:46;;;;;;;7.65;3.17;;;21.30;99.90;;;;;;5083105;28;20044;-64
2023/07/17 10:16:18;;;;;;;9.05;3.72;;;21.30;99.90;;;;;;5080478;28;20483;-63
2023/07/17 10:18:48;;;;;;;;;;;21.40;99.90;;;;;;5081112;28;20098;-63
2023/07/17 10:21:16;;;;;;;7.35;3.00;;;21.30;99.90;;;;;;5087932;28;19920;-64
2023/07/17 10:23:44;;;;;;;8.73;3.63;;;21.50;99.90;;;;;;5073956;28;20075;-64
2023/07/17 10:26:13;;;;;;;8.45;3.08;;;21.60;99.90;;;;;;5072350;28;20120;-64
2023/07/17 10:28:41;;;;;;;7.10;3.42;;;21.60;99.90;;;;;;5073369;28;20044;-65
2023/07/17 10:31:18;;;;;;;6.75;3.40;;;21.80;99.90;;;;;;5090928;28;20101;-65
2023/07/17 10:33:58;;;;;;;6.05;2.80;;;22.00;99.90;;;;;;5094700;28;20044;-64
2023/07/17 10:36:43;;;;;;;6.82;3.55;;;22.10;99.90;;;;;;5095142;28;20106;-64
2023/07/17 10:39:17;;;;;;;7.53;3.22;;;21.90;99.60;;;;;;5094706;28;20062;-64
2023/07/17 10:41:43;;;;;;;8.60;3.42;;;21.90;99.90;;;;;;5074997;28;20044;-64
2023/07/17 10:44:18;;;;;;;6.93;2.97;;;22.00;99.90;;;;;;5074815;28;20048;-65
2023/07/17 10:46:44;;;;;;;8.05;3.63;;;22.00;99.90;;;;;;5074749;28;20063;-64
2023/07/17 10:49:12;;;;;;;7.93;3.38;;;22.10;99.90;;;;;;5082712;28;20040;-64
2023/07/17 10:51:50;;;;;;;10.25;3.40;;;22.00;99.90;;;;;;5075173;28;20045;-63
2023/07/17 10:54:18;;;;;;;10.48;3.28;;;22.20;99.90;;;;;;5082547;28;20047;-64
2023/07/17 10:56:46;;;;;;;12.23;3.70;;;22.30;99.90;;;;;;5076531;28;20060;-63
2023/07/17 10:59:14;;;;;;;11.52;3.20;;;22.30;99.90;;;;;;5094214;28;20047;-64
2023/07/17 11:01:41;;;;;;;9.13;3.40;;;22.20;99.90;;;;;;5080710;28;20040;-63
2023/07/17 11:04:07;;;;;;;5.90;3.13;;;22.00;99.90;;;;;;5094846;28;20105;-63
2023/07/17 11:06:33;;;;;;;7.63;2.83;;;22.10;99.20;;;;;;5094613;28;20052;-63
2023/07/17 11:09:00;;;;;;;6.05;2.50;;;22.20;99.20;;;;;;5094716;28;20082;-63
2023/07/17 11:11:27;;;;;;;7.13;2.40;;;22.20;98.90;;;;;;5094390;28;20101;-63
2023/07/17 11:13:53;;;;;;;6.93;3.08;;;22.40;98.20;;;;;;5094729;28;20059;-63
2023/07/17 11:16:21;;;;;;;6.70;2.90;;;22.40;98.40;;;;;;5094742;28;20055;-64
2023/07/17 11:18:55;;;;;;;6.80;2.33;;;22.20;97.70;;;;;;5094600;28;20109;-64
2023/07/17 11:21:25;;;;;;;10.63;2.95;;;22.40;98.10;;;;;;5093907;28;20051;-63
2023/07/17 11:23:58;;;;;;;8.55;2.50;;;22.20;97.80;;;;;;5089194;28;20044;-65
2023/07/17 11:26:27;;;;;;;8.27;3.22;;;22.20;98.70;;;;;;5082209;28;20049;-65
2023/07/17 11:28:57;;;;;;;8.32;2.78;;;22.10;99.20;;;;;;5084958;28;20481;-65
2023/07/17 11:31:29;;;;;;;5.90;2.60;;;22.10;99.00;;;;;;5079224;28;20056;-63
2023/07/17 11:33:59;;;;;;;5.68;2.60;;;21.90;99.00;;;;;;5091702;28;20052;-63
2023/07/17 11:36:39;;;;;;;11.00;3.38;;;21.90;99.10;;;;;;5074282;28;20057;-64
2023/07/17 11:39:10;;;;;;;7.18;2.47;;;22.10;98.60;;;;;;5062129;28;20528;-63
2023/07/17 11:41:51;;;;;;;7.45;2.88;;;22.20;98.50;;;;;;5061509;28;20350;-65
2023/07/17 11:44:25;;;;;;;7.32;2.60;;;22.50;98.30;;;;;;5064427;28;20045;-64
2023/07/17 11:46:56;;;;;;;6.65;2.40;;;22.60;98.10;;;;;;5063845;28;20042;-63
2023/07/17 11:49:26;;;;;;;5.93;2.20;;;22.30;98.30;;;;;;5064550;28;20373;-64
2023/07/17 11:51:54;;;;;;;5.35;2.40;;;22.20;99.00;;;;;;5074194;28;20443;-64
2023/07/17 11:54:20;;;;;;;6.88;2.92;;;22.00;99.50;;;;;;5073976;28;20059;-64
2023/07/17 11:56:46;;;;;;;5.88;2.65;;;21.80;99.70;;;;;;5073678;28;20060;-64
2023/07/17 11:59:21;;;;;;;9.60;3.13;;;21.70;99.70;;;;;;5072836;28;20423;-64
2023/07/17 12:01:48;;;;;;;9.57;2.65;;;21.60;99.90;;;;;;5053405;28;20465;-64
2023/07/17 12:04:16;;;;;;;7.07;2.75;;;21.60;99.90;;;;;;5053156;28;20669;-64
2023/07/17 12:06:42;;;;;;;6.35;3.28;;;21.50;99.90;;;;;;5053421;28;20045;-64
2023/07/17 12:09:09;;;;;;;4.57;2.70;;;21.10;99.90;;;;;;5053063;28;20053;-64
2023/07/17 12:11:35;;;;;;;6.45;2.83;;;20.80;99.90;;;;;;5072817;28;20497;-64
2023/07/17 12:14:02;;;;;;;6.05;2.50;;;20.60;99.90;;;;;;5073594;28;20052;-64
2023/07/17 12:16:28;;;;;;;4.65;2.47;;;20.50;99.90;;;;;;5073610;28;20106;-64
2023/07/17 12:18:54;;;;;;;3.63;2.10;;;20.50;99.90;;;;;;5073016;28;20053;-63
2023/07/17 12:21:20;;;;;;;2.95;1.90;;;20.40;99.90;;;;;;5072287;28;20531;-64
2023/07/17 12:23:47;;;;;;;4.70;1.73;;;20.40;99.90;;;;;;5073281;28;20048;-63
2023/07/17 12:26:13;;;;;;;3.22;2.25;;;20.30;99.90;;;;;;5072882;28;20053;-63
2023/07/17 12:28:39;;;;;;;2.78;1.60;;;20.20;99.90;;;;;;5072565;28;20376;-63
2023/07/17 12:31:06;;;;;;;3.67;2.05;;;20.30;99.90;;;;;;5072138;28;20414;-64
2023/07/17 12:33:32;;;;;;;5.25;2.30;;;20.30;99.90;;;;;;5073175;28;20484;-64
2023/07/17 12:35:58;;;;;;;4.10;2.20;;;20.10;99.90;;;;;;5076938;28;20048;-63
2023/07/17 12:38:24;;;;;;;5.72;2.80;;;19.90;99.90;;;;;;5093321;28;20309;-64
2023/07/17 12:40:51;;;;;;;7.38;3.72;;;19.70;99.90;;;;;;5092641;28;20048;-65
2023/07/17 12:43:18;;;;;;;10.30;3.40;;;19.30;99.90;;;;;;5092737;28;20399;-64
2023/07/17 12:45:45;;;;;;;7.47;3.17;;;18.70;99.90;;;;;;5093249;28;20334;-63